Skip to content
You are here: Gozo Weather
Gozo Weather Station for the very latest live weather conditions from Gozo and Malta
 
 TIME   TEMPERATURE   WINDSPEED   DIRECTION   HUMIDITY   BAROMETER   RAINFALL 
8:20 25.2°C (77.4°F) 14.8 kmh (9.2 mph) NNE 57% 1014.0hPa (29.94 inHg) 0.0mm (0.00 in.)
7:20 25.1°C (77.2 °F) 18.5 kmh (11.5 mph) NW 55% 1013.0hPa (29.91 inHg) 0.0mm (0.00 in.)
6:20 26.1°C (79.0 °F) 18.5 kmh (11.5 mph) SW 53% 1013.0hPa (29.91 inHg) 0.0mm (0.00 in.)
5:20 26.3°C (79.3 °F) 22.2 kmh (13.8 mph) NNW 51% 1013.0hPa (29.91 inHg) 0.0mm (0.00 in.)
4:20 26.6°C (79.9 °F) 18.5 kmh (11.5 mph) NNW 53% 1012.0hPa (29.88 inHg) 0.0mm (0.00 in.)
3:20 27.0°C (80.6 °F) 25.9 kmh (16.1 mph) N 50% 1013.0hPa (29.91 inHg) 0.0mm (0.00 in.)
2:20 26.8°C (80.2 °F) 20.4 kmh (12.7 mph) N 52% 1013.0hPa (29.91 inHg) 0.0mm (0.00 in.)
1:20 26.6°C (79.9 °F) 18.5 kmh (11.5 mph) SSW 53% 1013.0hPa (29.91 inHg) 0.0mm (0.00 in.)
12:13 26.5°C (79.7 °F) 18.5 kmh (11.5 mph) WNW 53% 1013.0hPa (29.91 inHg) 0.0mm (0.00 in.)
11:13 26.1°C (79.0 °F) 18.5 kmh (11.5 mph) SW 55% 1013.0hPa (29.91 inHg) 0.0mm (0.00 in.)
10:13 25.2°C (77.4 °F) 20.4 kmh (12.7 mph) SE 58% 1013.0hPa (29.91 inHg) 0.0mm (0.00 in.)
9:13 24.7°C (76.5 °F) 24.1 kmh (15.0 mph) WNW 58% 1013.0hPa (29.91 inHg) 0.0mm (0.00 in.)
8:13 24.1°C (75.4 °F) 24.1 kmh (15.0 mph) NW 59% 1013.0hPa (29.91 inHg) 0.0mm (0.00 in.)
7:13 22.9°C (73.2 °F) 16.7 kmh (10.4 mph) SSW 59% 1012.0hPa (29.88 inHg) 0.0mm (0.00 in.)
6:13 22.8°C (73.0 °F) 20.4 kmh (12.7 mph) NNW 63% 1012.0hPa (29.88 inHg) 0.0mm (0.00 in.)
5:13 22.5°C (72.5 °F) 20.4 kmh (12.7 mph) S 63% 1012.0hPa (29.88 inHg) 0.0mm (0.00 in.)
4:13 22.1°C (71.8 °F) 22.2 kmh (13.8 mph) SW 62% 1012.0hPa (29.88 inHg) 0.0mm (0.00 in.)
3:13 23.5°C (74.3 °F) 16.7 kmh (10.4 mph) NNW 60% 1012.0hPa (29.88 inHg) 0.0mm (0.00 in.)
2:13 23.3°C (73.9 °F) 11.1 kmh (6.9 mph) S 58% 1013.0hPa (29.91 inHg) 0.0mm (0.00 in.)
1:13 23.1°C (73.6 °F) 14.8 kmh (9.2 mph) WNW 58% 1013.0hPa (29.91 inHg) 0.0mm (0.00 in.)
12:13 23.8°C (74.8 °F) 20.4 kmh (12.7 mph) SSW 57% 1013.0hPa (29.91 inHg) 0.0mm (0.00 in.)
11:13 23.9°C (75.0 °F) 16.7 kmh (10.4 mph) SSW 57% 1013.0hPa (29.91 inHg) 0.0mm (0.00 in.)
10:13 24.1°C (75.4 °F) 0.0 kmh (0.0 mph) N 53% 1014.0hPa (29.94 inHg) 0.0mm (0.00 in.)
9:13 24.4°C (75.9 °F) 7.4 kmh (4.6 mph) S 51% 1014.0hPa (29.94 inHg) 0.0mm (0.00 in.)

You need the latest version of Flash Player to view some of our content.


Why not download and install the latest version now?
It will only take you a moment and will ensure that you can view all the latest flash designed websites.

Translate this page

Animated Satellite

Click per aprire http://www.gozo.ws/Animation.php
copyright 2016 EUMETSAT

European Lightning Activity


Please click image for full size

Sponsored Links